createdAt,value
2022-10-13T00:05:35.417Z,5
2022-10-13T00:35:36.134Z,5.6
2022-10-13T01:05:36.878Z,4.6
2022-10-13T01:35:45.161Z,5.1
2022-10-13T02:05:42.295Z,6
2022-10-13T02:35:38.886Z,6.3
2022-10-13T03:05:39.862Z,6.9
2022-10-13T03:35:41.177Z,6.1
2022-10-13T04:05:41.723Z,7.7
2022-10-13T04:35:42.812Z,8.7
2022-10-13T05:05:43.713Z,8.6
2022-10-13T05:35:44.517Z,9.3
2022-10-13T06:05:47.248Z,9.8
2022-10-13T06:35:47.279Z,11.1
2022-10-13T07:05:48.211Z,11.7
2022-10-13T07:35:49.254Z,11.2
2022-10-13T08:05:50.559Z,10.6
2022-10-13T08:35:51.642Z,10.2
2022-10-13T09:05:59.387Z,10.4
2022-10-13T09:36:06.046Z,8.7
2022-10-13T10:05:56.627Z,7.5
2022-10-13T10:36:01.198Z,7.3
2022-10-13T11:06:11.625Z,4
2022-10-13T11:35:59.713Z,3.1
2022-10-13T12:06:03.291Z,2.5
2022-10-13T12:36:13.272Z,1.9
2022-10-13T13:06:28.731Z,2.2
2022-10-13T13:36:05.996Z,1.6
2022-10-13T14:06:07.641Z,1.8
2022-10-13T14:36:10.811Z,1.6
2022-10-13T15:06:11.455Z,1
2022-10-13T15:36:12.291Z,0.9
2022-10-13T16:06:14.563Z,1.2
2022-10-13T16:36:15.637Z,1.2
2022-10-13T17:06:19.001Z,1.1
2022-10-13T17:36:17.473Z,1.2
2022-10-13T18:06:17.568Z,1.3
2022-10-13T18:36:23.748Z,1.4
2022-10-13T19:06:22.570Z,1.7
2022-10-13T19:36:25.359Z,2.2
2022-10-13T20:06:21.371Z,3.1
2022-10-13T20:36:23.357Z,3
2022-10-13T21:06:21.666Z,3.6
2022-10-13T21:36:23.404Z,3.2
2022-10-13T22:06:22.677Z,4.1
2022-10-13T22:36:23.612Z,4.2
2022-10-13T23:06:24.116Z,3.7
2022-10-13T23:36:24.667Z,3.5
